CW7283 Weather Reports


Display with metric or nautical units.
time (UTC)temp
F
wind
direction
speed
MPH
gust
MPH
rain 1hr
in
rain 24hr
in
rain mn
in
humidity
%
barometer
mb
20200710200340 79 15 1.0 7.0 0.00 0.00 0.00 40 1019.5
20200710194844 78 42 1.0 13.0 0.00 0.00 0.00 40 1019.3
20200710193330 77 346 1.0 3.0 0.00 0.00 0.00 43 1019.0
20200710191852 78 11 1.0 12.0 0.00 0.00 0.00 39 1019.1
20200710190327 79 350 2.0 15.0 0.00 0.00 0.00 39 1019.0
20200710184828 79 224 1.0 17.0 0.00 0.00 0.00 36 1018.5
20200710183330 79 263 1.0 14.0 0.00 0.00 0.00 37 1018.2
20200710181856 78 29 1.0 6.0 0.00 0.00 0.00 37 1018.0
20200710180354 81 327 1.0 8.0 0.00 0.00 0.00 38 1017.2
20200710174849 85 46 0.0 0.0 0.00 0.00 0.00 37 1015.4
20200710173336 82 46 0.0 3.0 0.00 0.00 0.00 39 1015.2
20200710171839 81 46 2.0 5.0 0.00 0.00 0.00 38 1015.1
20200710170358 81 46 0.0 0.0 0.00 0.00 0.00 40 1015.3
20200710164838 79 46 0.0 0.0 0.00 0.00 0.00 42 1015.3
20200710163344 76 46 0.0 0.0 0.00 0.00 0.00 44 1015.2
20200710161827 75 46 0.0 0.0 0.00 0.00 0.00 48 1015.4
20200710160355 74 46 0.0 0.0 0.00 0.00 0.00 48 1015.5
20200710154845 72 46 0.0 0.0 0.00 0.00 0.00 50 1016.0
20200710153333 71 46 0.0 0.0 0.00 0.00 0.00 51 1016.1
20200710151842 69 46 0.0 0.0 0.00 0.00 0.00 54 1016.1
20200710150342 67 46 0.0 0.0 0.00 0.00 0.00 56 1016.3
20200710144855 68 46 0.0 0.0 0.00 0.00 0.00 56 1016.6
20200710143332 69 46 0.0 0.0 0.00 0.00 0.00 54 1016.7
20200710141828 68 46 0.0 0.0 0.00 0.00 0.00 54 1017.0
20200710140342 66 46 0.0 0.0 0.00 0.00 0.00 57 1017.1
20200710134848 66 46 0.0 0.0 0.00 0.00 0.00 59 1016.8
20200710133337 62 46 0.0 0.0 0.00 0.00 0.00 64 1017.0
20200710131831 59 46 0.0 1.0 0.00 0.00 0.00 70 1017.2
20200710130334 57 46 0.0 1.0 0.00 0.00 0.00 73 1017.2
20200710124852 56 46 0.0 1.0 0.00 0.00 0.00 75 1017.1
20200710123336 57 46 0.0 0.0 0.00 0.00 0.00 77 1017.1
20200710121842 55 46 0.0 0.0 0.00 0.00 0.00 78 1017.2
20200710120331 56 46 0.0 0.0 0.00 0.00 0.00 77 1017.2
20200710114832 56 46 0.0 0.0 0.00 0.00 0.00 75 1017.1
20200710113341 56 46 0.0 0.0 0.00 0.00 0.00 74 1017.2
20200710111829 57 46 0.0 0.0 0.00 0.00 0.00 73 1017.2
20200710110353 58 46 0.0 0.0 0.00 0.00 0.00 71 1017.5
20200710104839 58 46 0.0 1.0 0.00 0.00 0.00 70 1017.5
20200710103331 58 46 0.0 0.0 0.00 0.00 0.00 70 1017.4
20200710101832 59 46 0.0 0.0 0.00 0.00 0.00 68 1017.5
20200710100351 60 46 0.0 0.0 0.00 0.00 0.00 67 1017.5
20200710094839 60 46 0.0 0.0 0.00 0.00 0.00 65 1017.5
20200710093342 61 46 0.0 0.0 0.00 0.00 0.00 64 1017.4
20200710091824 61 46 0.0 0.0 0.00 0.00 0.00 62 1017.4
20200710090346 62 46 0.0 0.0 0.00 0.00 0.00 61 1017.6
20200710084844 61 46 0.0 0.0 0.00 0.00 0.00 61 1017.7
20200710083328 62 46 0.0 2.0 0.00 0.00 0.00 60 1017.8
20200710081827 61 46 0.0 2.0 0.00 0.00 0.00 60 1017.4
20200710080344 62 46 0.0 0.0 0.00 0.00 0.00 62 1017.2
20200710074831 62 46 0.0 0.0 0.00 0.00 0.00 59 1016.9
20200710073326 64 46 0.0 1.0 0.00 0.00 0.00 57 1016.8
20200710071840 65 46 1.0 3.0 0.00 0.00 0.00 56 1017.2
20200710070356 66 46 0.0 0.0 0.00 0.00 0.00 53 1017.2
20200710064842 66 46 0.0 0.0 0.00 0.00 0.00 51 1017.2
20200710063326 66 46 0.0 0.0 0.00 0.00 0.00 51 1017.1
20200710061844 67 46 0.0 0.0 0.00 0.00 0.00 49 1017.1
20200710060327 68 46 0.0 0.0 0.00 0.00 0.00 48 1016.6
20200710054826 68 46 0.0 0.0 0.00 0.00 0.00 47 1016.2
20200710053358 69 46 0.0 0.0 0.00 0.00 0.00 46 1016.1
20200710051839 70 46 0.0 0.0 0.00 0.00 0.00 44 1016.2
20200710050341 71 46 0.0 0.0 0.00 0.00 0.00 41 1016.1
20200710044829 72 46 0.0 0.0 0.00 0.00 0.00 39 1016.0
20200710043404 73 46 0.0 1.0 0.00 0.00 0.00 38 1015.5
20200710041845 74 46 0.0 0.0 0.00 0.00 0.00 34 1015.5
20200710040342 75 46 0.0 0.0 0.00 0.00 0.00 31 1015.4
20200710034834 76 46 0.0 2.0 0.00 0.00 0.00 33 1014.9
20200710033347 76 46 0.0 0.0 0.00 0.00 0.00 31 1014.6
20200710031850 76 46 0.0 0.0 0.00 0.00 0.00 26 1014.3
20200710030358 76 46 0.0 1.0 0.00 0.00 0.00 29 1014.2
20200710024837 78 46 0.0 1.0 0.00 0.00 0.00 30 1013.9
20200710023341 79 46 1.0 3.0 0.00 0.00 0.00 28 1013.7
20200710021851 80 46 0.0 2.0 0.00 0.00 0.00 26 1013.7
20200710020331 81 46 0.0 1.0 0.00 0.00 0.00 30 1013.7
20200710014831 83 46 0.0 2.0 0.00 0.00 0.00 25 1014.0
20200710013341 84 46 0.0 0.0 0.00 0.00 0.00 27 1014.0
20200710011827 85 46 0.0 0.0 0.00 0.00 0.00 26 1014.1
20200710010328 86 46 1.0 4.0 0.00 0.00 0.00 24 1014.2
20200710004847 87 46 0.0 2.0 0.00 0.00 0.00 23 1014.0
20200710003338 88 46 0.0 2.0 0.00 0.00 0.00 22 1013.9
20200710001837 89 46 0.0 0.0 0.00 0.00 0.00 22 1013.9
20200710000359 91 46 0.0 0.0 0.00 0.00 0.00 21 1014.0
20200709234843 90 46 0.0 2.0 0.00 0.00 0.00 20 1013.9
20200709233355 90 46 0.0 2.0 0.00 0.00 0.00 21 1014.0
20200709231838 90 46 0.0 2.0 0.00 0.00 0.00 22 1013.9
20200709230335 89 46 0.0 2.0 0.00 0.00 0.00 23 1013.8
20200709224842 89 46 1.0 4.0 0.00 0.00 0.00 24 1013.9
20200709223339 90 46 0.0 3.0 0.00 0.00 0.00 24 1014.2
20200709221836 90 46 1.0 3.0 0.00 0.00 0.00 21 1014.3
20200709220334 89 46 0.0 2.0 0.00 0.00 0.00 22 1014.4
20200709214847 89 45 0.0 3.0 0.00 0.00 0.00 23 1014.6
20200709213331 88 44 0.0 4.0 0.00 0.00 0.00 23 1014.6
20200709211839 88 44 0.0 1.0 0.00 0.00 0.00 24 1014.8
20200709210332 88 42 0.0 2.0 0.00 0.00 0.00 23 1014.9
20200709204843 87 42 0.0 2.0 0.00 0.00 0.00 26 1014.9
20200709203341 87 42 1.0 3.0 0.00 0.00 0.00 24 1015.0
20200709201831 87 42 0.0 1.0 0.00 0.00 0.00 26 1015.1